sensor_id;sensor_type;location;lat;lon;timestamp;P1;durP1;ratioP1;P2;durP2;ratioP2
41623;SDS011;27319;50.306;18.926;2024-03-02T00:04:10;80.60;;;38.78;;
41623;SDS011;27319;50.306;18.926;2024-03-02T00:08:11;71.72;;;38.78;;
41623;SDS011;27319;50.306;18.926;2024-03-02T00:12:13;81.00;;;40.17;;
41623;SDS011;27319;50.306;18.926;2024-03-02T00:16:13;76.30;;;39.65;;
41623;SDS011;27319;50.306;18.926;2024-03-02T00:20:15;78.15;;;40.75;;
41623;SDS011;27319;50.306;18.926;2024-03-02T00:23:31;70.43;;;38.47;;
41623;SDS011;27319;50.306;18.926;2024-03-02T00:26:34;69.50;;;39.28;;
41623;SDS011;27319;50.306;18.926;2024-03-02T00:29:34;69.80;;;37.47;;
41623;SDS011;27319;50.306;18.926;2024-03-02T00:32:36;69.47;;;39.25;;
41623;SDS011;27319;50.306;18.926;2024-03-02T00:35:36;89.00;;;44.35;;
41623;SDS011;27319;50.306;18.926;2024-03-02T00:42:24;77.75;;;39.53;;
41623;SDS011;27319;50.306;18.926;2024-03-02T00:46:26;69.78;;;37.80;;
41623;SDS011;27319;50.306;18.926;2024-03-02T00:50:26;70.30;;;36.28;;
41623;SDS011;27319;50.306;18.926;2024-03-02T00:54:27;78.72;;;37.70;;
41623;SDS011;27319;50.306;18.926;2024-03-02T00:58:28;75.85;;;38.53;;
41623;SDS011;27319;50.306;18.926;2024-03-02T01:01:29;79.65;;;41.78;;
41623;SDS011;27319;50.306;18.926;2024-03-02T01:04:30;84.82;;;41.92;;
41623;SDS011;27319;50.306;18.926;2024-03-02T01:07:30;77.10;;;38.65;;
41623;SDS011;27319;50.306;18.926;2024-03-02T01:10:31;77.78;;;41.30;;
41623;SDS011;27319;50.306;18.926;2024-03-02T01:14:32;73.13;;;37.33;;
41623;SDS011;27319;50.306;18.926;2024-03-02T01:18:33;75.22;;;38.00;;
41623;SDS011;27319;50.306;18.926;2024-03-02T01:22:34;61.22;;;35.63;;
41623;SDS011;27319;50.306;18.926;2024-03-02T01:26:35;65.57;;;35.38;;
41623;SDS011;27319;50.306;18.926;2024-03-02T01:30:36;70.35;;;33.72;;
41623;SDS011;27319;50.306;18.926;2024-03-02T01:34:36;65.43;;;36.35;;
41623;SDS011;27319;50.306;18.926;2024-03-02T01:38:37;68.65;;;36.35;;
41623;SDS011;27319;50.306;18.926;2024-03-02T01:42:38;71.20;;;36.83;;
41623;SDS011;27319;50.306;18.926;2024-03-02T01:46:39;69.78;;;37.95;;
41623;SDS011;27319;50.306;18.926;2024-03-02T01:50:40;80.63;;;40.80;;
41623;SDS011;27319;50.306;18.926;2024-03-02T01:54:41;84.40;;;41.97;;
41623;SDS011;27319;50.306;18.926;2024-03-02T01:58:42;84.47;;;41.60;;
41623;SDS011;27319;50.306;18.926;2024-03-02T02:02:43;77.78;;;39.72;;
41623;SDS011;27319;50.306;18.926;2024-03-02T02:06:46;76.47;;;39.42;;
41623;SDS011;27319;50.306;18.926;2024-03-02T02:10:47;79.65;;;38.47;;
41623;SDS011;27319;50.306;18.926;2024-03-02T02:14:48;75.40;;;38.97;;
41623;SDS011;27319;50.306;18.926;2024-03-02T02:19:07;75.85;;;36.85;;
41623;SDS011;27319;50.306;18.926;2024-03-02T02:23:08;66.30;;;37.22;;
41623;SDS011;27319;50.306;18.926;2024-03-02T02:27:08;71.45;;;37.92;;
41623;SDS011;27319;50.306;18.926;2024-03-02T02:31:09;69.65;;;38.35;;
41623;SDS011;27319;50.306;18.926;2024-03-02T02:35:19;69.68;;;38.53;;
41623;SDS011;27319;50.306;18.926;2024-03-02T02:39:20;67.25;;;37.67;;
41623;SDS011;27319;50.306;18.926;2024-03-02T02:43:20;73.00;;;38.17;;
41623;SDS011;27319;50.306;18.926;2024-03-02T02:47:21;71.97;;;37.60;;
41623;SDS011;27319;50.306;18.926;2024-03-02T02:51:22;75.40;;;38.03;;
41623;SDS011;27319;50.306;18.926;2024-03-02T02:55:23;64.68;;;35.35;;
41623;SDS011;27319;50.306;18.926;2024-03-02T02:59:24;62.17;;;35.70;;
41623;SDS011;27319;50.306;18.926;2024-03-02T03:03:24;66.32;;;38.20;;
41623;SDS011;27319;50.306;18.926;2024-03-02T03:07:25;59.92;;;34.17;;
41623;SDS011;27319;50.306;18.926;2024-03-02T03:11:26;61.05;;;32.58;;
41623;SDS011;27319;50.306;18.926;2024-03-02T03:15:27;56.53;;;32.55;;
41623;SDS011;27319;50.306;18.926;2024-03-02T03:19:28;54.35;;;30.17;;
41623;SDS011;27319;50.306;18.926;2024-03-02T03:22:46;59.50;;;32.45;;
41623;SDS011;27319;50.306;18.926;2024-03-02T03:25:47;62.08;;;33.05;;
41623;SDS011;27319;50.306;18.926;2024-03-02T03:28:48;62.03;;;31.33;;
41623;SDS011;27319;50.306;18.926;2024-03-02T03:31:49;62.50;;;32.92;;
41623;SDS011;27319;50.306;18.926;2024-03-02T03:34:50;63.95;;;33.08;;
41623;SDS011;27319;50.306;18.926;2024-03-02T03:38:51;58.22;;;32.13;;
41623;SDS011;27319;50.306;18.926;2024-03-02T03:42:52;54.55;;;29.98;;
41623;SDS011;27319;50.306;18.926;2024-03-02T03:46:53;55.95;;;30.75;;
41623;SDS011;27319;50.306;18.926;2024-03-02T03:50:53;51.58;;;28.65;;
41623;SDS011;27319;50.306;18.926;2024-03-02T03:54:54;59.13;;;30.67;;
41623;SDS011;27319;50.306;18.926;2024-03-02T03:58:56;56.85;;;31.00;;
41623;SDS011;27319;50.306;18.926;2024-03-02T04:02:56;55.67;;;30.48;;
41623;SDS011;27319;50.306;18.926;2024-03-02T04:06:57;49.92;;;29.08;;
41623;SDS011;27319;50.306;18.926;2024-03-02T04:11:01;52.67;;;29.95;;
41623;SDS011;27319;50.306;18.926;2024-03-02T04:14:04;51.78;;;28.80;;
41623;SDS011;27319;50.306;18.926;2024-03-02T04:17:06;49.78;;;28.25;;
41623;SDS011;27319;50.306;18.926;2024-03-02T04:20:07;46.90;;;27.25;;
41623;SDS011;27319;50.306;18.926;2024-03-02T04:24:08;54.42;;;29.20;;
41623;SDS011;27319;50.306;18.926;2024-03-02T04:28:09;49.97;;;27.75;;
41623;SDS011;27319;50.306;18.926;2024-03-02T04:32:10;50.70;;;27.60;;
41623;SDS011;27319;50.306;18.926;2024-03-02T04:36:10;47.55;;;27.05;;
41623;SDS011;27319;50.306;18.926;2024-03-02T04:40:11;49.20;;;26.30;;
41623;SDS011;27319;50.306;18.926;2024-03-02T04:44:12;42.80;;;25.50;;
41623;SDS011;27319;50.306;18.926;2024-03-02T04:47:15;53.78;;;27.58;;
41623;SDS011;27319;50.306;18.926;2024-03-02T04:51:16;45.08;;;25.92;;
41623;SDS011;27319;50.306;18.926;2024-03-02T04:55:17;46.83;;;25.77;;
41623;SDS011;27319;50.306;18.926;2024-03-02T04:59:17;43.60;;;24.25;;
41623;SDS011;27319;50.306;18.926;2024-03-02T05:03:17;45.35;;;24.10;;
41623;SDS011;27319;50.306;18.926;2024-03-02T05:06:18;44.65;;;26.92;;
41623;SDS011;27319;50.306;18.926;2024-03-02T05:09:19;45.08;;;24.13;;
41623;SDS011;27319;50.306;18.926;2024-03-02T05:12:20;46.45;;;23.08;;
41623;SDS011;27319;50.306;18.926;2024-03-02T05:15:40;42.63;;;22.02;;
41623;SDS011;27319;50.306;18.926;2024-03-02T05:19:41;43.85;;;25.08;;
41623;SDS011;27319;50.306;18.926;2024-03-02T05:23:41;35.83;;;22.50;;
41623;SDS011;27319;50.306;18.926;2024-03-02T05:27:42;44.45;;;23.75;;
41623;SDS011;27319;50.306;18.926;2024-03-02T05:31:43;41.80;;;23.95;;
41623;SDS011;27319;50.306;18.926;2024-03-02T05:35:44;45.42;;;24.02;;
41623;SDS011;27319;50.306;18.926;2024-03-02T05:39:44;43.53;;;25.27;;
41623;SDS011;27319;50.306;18.926;2024-03-02T05:43:01;48.88;;;24.83;;
41623;SDS011;27319;50.306;18.926;2024-03-02T05:46:02;44.25;;;24.02;;
41623;SDS011;27319;50.306;18.926;2024-03-02T05:49:03;42.97;;;25.08;;
41623;SDS011;27319;50.306;18.926;2024-03-02T05:52:04;44.15;;;24.98;;
41623;SDS011;27319;50.306;18.926;2024-03-02T05:55:05;43.55;;;24.08;;
41623;SDS011;27319;50.306;18.926;2024-03-02T05:59:06;50.50;;;27.55;;
41623;SDS011;27319;50.306;18.926;2024-03-02T06:03:07;43.33;;;25.08;;
41623;SDS011;27319;50.306;18.926;2024-03-02T06:06:43;43.47;;;24.33;;
41623;SDS011;27319;50.306;18.926;2024-03-02T06:10:44;42.78;;;24.83;;
41623;SDS011;27319;50.306;18.926;2024-03-02T06:14:45;44.40;;;24.52;;
41623;SDS011;27319;50.306;18.926;2024-03-02T06:18:46;51.40;;;27.42;;
41623;SDS011;27319;50.306;18.926;2024-03-02T06:22:22;44.25;;;26.65;;
41623;SDS011;27319;50.306;18.926;2024-03-02T06:25:43;46.63;;;26.48;;
41623;SDS011;27319;50.306;18.926;2024-03-02T06:28:44;45.83;;;27.60;;
41623;SDS011;27319;50.306;18.926;2024-03-02T06:31:46;49.50;;;28.67;;
41623;SDS011;27319;50.306;18.926;2024-03-02T06:35:46;55.15;;;30.67;;
41623;SDS011;27319;50.306;18.926;2024-03-02T06:39:47;59.42;;;31.55;;
41623;SDS011;27319;50.306;18.926;2024-03-02T06:43:48;53.92;;;30.67;;
41623;SDS011;27319;50.306;18.926;2024-03-02T06:46:49;47.92;;;26.70;;
41623;SDS011;27319;50.306;18.926;2024-03-02T06:49:50;45.45;;;28.25;;
41623;SDS011;27319;50.306;18.926;2024-03-02T06:52:51;55.38;;;29.35;;
41623;SDS011;27319;50.306;18.926;2024-03-02T06:55:52;52.33;;;28.50;;
41623;SDS011;27319;50.306;18.926;2024-03-02T06:58:53;52.50;;;29.42;;
41623;SDS011;27319;50.306;18.926;2024-03-02T07:01:54;58.25;;;31.50;;
41623;SDS011;27319;50.306;18.926;2024-03-02T07:04:55;61.03;;;31.15;;
41623;SDS011;27319;50.306;18.926;2024-03-02T07:07:57;54.47;;;31.17;;
41623;SDS011;27319;50.306;18.926;2024-03-02T07:10:57;58.38;;;32.80;;
41623;SDS011;27319;50.306;18.926;2024-03-02T07:13:58;65.05;;;33.08;;
41623;SDS011;27319;50.306;18.926;2024-03-02T07:17:58;60.55;;;34.60;;
41623;SDS011;27319;50.306;18.926;2024-03-02T07:21:59;60.72;;;31.48;;
41623;SDS011;27319;50.306;18.926;2024-03-02T07:26:00;64.38;;;34.25;;
41623;SDS011;27319;50.306;18.926;2024-03-02T07:30:02;57.35;;;32.53;;
41623;SDS011;27319;50.306;18.926;2024-03-02T07:34:01;56.75;;;32.58;;
41623;SDS011;27319;50.306;18.926;2024-03-02T07:38:02;57.28;;;32.75;;
41623;SDS011;27319;50.306;18.926;2024-03-02T07:42:03;56.90;;;31.40;;
41623;SDS011;27319;50.306;18.926;2024-03-02T07:46:04;65.00;;;30.23;;
41623;SDS011;27319;50.306;18.926;2024-03-02T07:50:05;56.90;;;29.77;;
41623;SDS011;27319;50.306;18.926;2024-03-02T07:54:06;53.08;;;30.38;;
41623;SDS011;27319;50.306;18.926;2024-03-02T07:58:07;52.30;;;32.50;;
41623;SDS011;27319;50.306;18.926;2024-03-02T08:01:08;58.97;;;33.55;;
41623;SDS011;27319;50.306;18.926;2024-03-02T08:04:09;65.30;;;35.97;;
41623;SDS011;27319;50.306;18.926;2024-03-02T08:08:10;59.47;;;35.55;;
41623;SDS011;27319;50.306;18.926;2024-03-02T08:12:10;60.22;;;36.33;;
41623;SDS011;27319;50.306;18.926;2024-03-02T08:16:11;69.05;;;36.65;;
41623;SDS011;27319;50.306;18.926;2024-03-02T08:20:12;63.15;;;34.42;;
41623;SDS011;27319;50.306;18.926;2024-03-02T08:24:12;70.88;;;35.42;;
41623;SDS011;27319;50.306;18.926;2024-03-02T08:28:13;64.80;;;34.92;;
41623;SDS011;27319;50.306;18.926;2024-03-02T08:32:14;59.47;;;35.25;;
41623;SDS011;27319;50.306;18.926;2024-03-02T08:36:15;66.03;;;37.97;;
41623;SDS011;27319;50.306;18.926;2024-03-02T08:40:16;62.58;;;35.88;;
41623;SDS011;27319;50.306;18.926;2024-03-02T08:44:17;60.00;;;33.38;;
41623;SDS011;27319;50.306;18.926;2024-03-02T08:48:18;63.17;;;32.22;;
41623;SDS011;27319;50.306;18.926;2024-03-02T08:52:19;56.67;;;33.03;;
41623;SDS011;27319;50.306;18.926;2024-03-02T08:56:19;58.22;;;34.35;;
41623;SDS011;27319;50.306;18.926;2024-03-02T09:00:20;52.30;;;29.45;;
41623;SDS011;27319;50.306;18.926;2024-03-02T09:04:02;54.30;;;29.65;;
41623;SDS011;27319;50.306;18.926;2024-03-02T09:08:03;54.70;;;29.92;;
41623;SDS011;27319;50.306;18.926;2024-03-02T09:12:04;55.03;;;29.60;;
41623;SDS011;27319;50.306;18.926;2024-03-02T09:16:08;50.53;;;28.40;;
41623;SDS011;27319;50.306;18.926;2024-03-02T09:20:09;54.40;;;29.77;;
41623;SDS011;27319;50.306;18.926;2024-03-02T09:24:10;49.97;;;26.48;;
41623;SDS011;27319;50.306;18.926;2024-03-02T09:28:10;45.05;;;26.67;;
41623;SDS011;27319;50.306;18.926;2024-03-02T09:32:14;47.65;;;28.02;;
41623;SDS011;27319;50.306;18.926;2024-03-02T09:36:19;55.30;;;28.08;;
41623;SDS011;27319;50.306;18.926;2024-03-02T09:40:21;53.67;;;30.63;;
41623;SDS011;27319;50.306;18.926;2024-03-02T09:44:20;58.65;;;30.80;;
41623;SDS011;27319;50.306;18.926;2024-03-02T09:48:21;50.22;;;31.25;;
41623;SDS011;27319;50.306;18.926;2024-03-02T09:52:25;60.42;;;31.52;;
41623;SDS011;27319;50.306;18.926;2024-03-02T09:56:25;66.65;;;33.83;;
41623;SDS011;27319;50.306;18.926;2024-03-02T10:00:26;52.63;;;31.08;;
41623;SDS011;27319;50.306;18.926;2024-03-02T10:04:28;61.47;;;32.22;;
41623;SDS011;27319;50.306;18.926;2024-03-02T10:07:29;53.97;;;31.25;;
41623;SDS011;27319;50.306;18.926;2024-03-02T10:11:42;56.88;;;31.58;;
41623;SDS011;27319;50.306;18.926;2024-03-02T10:15:46;56.58;;;33.75;;
41623;SDS011;27319;50.306;18.926;2024-03-02T10:19:52;63.08;;;34.03;;
41623;SDS011;27319;50.306;18.926;2024-03-02T10:27:50;64.63;;;33.72;;
41623;SDS011;27319;50.306;18.926;2024-03-02T10:31:50;59.53;;;33.13;;
41623;SDS011;27319;50.306;18.926;2024-03-02T10:35:51;49.38;;;29.20;;
41623;SDS011;27319;50.306;18.926;2024-03-02T10:39:52;50.95;;;30.33;;
41623;SDS011;27319;50.306;18.926;2024-03-02T10:42:52;52.47;;;30.63;;
41623;SDS011;27319;50.306;18.926;2024-03-02T10:45:54;50.28;;;29.48;;
41623;SDS011;27319;50.306;18.926;2024-03-02T10:48:58;48.78;;;28.58;;
41623;SDS011;27319;50.306;18.926;2024-03-02T10:52:58;50.70;;;30.13;;
41623;SDS011;27319;50.306;18.926;2024-03-02T10:56:59;57.65;;;32.92;;
41623;SDS011;27319;50.306;18.926;2024-03-02T11:01:01;50.97;;;30.35;;
41623;SDS011;27319;50.306;18.926;2024-03-02T11:05:01;49.55;;;31.15;;
41623;SDS011;27319;50.306;18.926;2024-03-02T11:09:02;55.47;;;30.80;;
41623;SDS011;27319;50.306;18.926;2024-03-02T11:13:05;41.53;;;24.25;;
41623;SDS011;27319;50.306;18.926;2024-03-02T11:17:09;50.55;;;22.58;;
41623;SDS011;27319;50.306;18.926;2024-03-02T11:20:10;40.85;;;24.10;;
41623;SDS011;27319;50.306;18.926;2024-03-02T11:31:11;38.40;;;21.85;;
41623;SDS011;27319;50.306;18.926;2024-03-02T11:38:51;41.97;;;23.38;;
41623;SDS011;27319;50.306;18.926;2024-03-02T11:42:52;37.78;;;21.75;;
41623;SDS011;27319;50.306;18.926;2024-03-02T11:45:57;36.15;;;22.15;;
41623;SDS011;27319;50.306;18.926;2024-03-02T11:49:00;46.63;;;24.45;;
41623;SDS011;27319;50.306;18.926;2024-03-02T11:52:00;43.53;;;24.05;;
41623;SDS011;27319;50.306;18.926;2024-03-02T11:55:02;34.17;;;21.17;;
41623;SDS011;27319;50.306;18.926;2024-03-02T11:58:05;33.53;;;19.45;;
41623;SDS011;27319;50.306;18.926;2024-03-02T12:01:06;38.45;;;19.63;;
41623;SDS011;27319;50.306;18.926;2024-03-02T12:04:07;35.72;;;19.48;;
41623;SDS011;27319;50.306;18.926;2024-03-02T12:07:08;30.30;;;17.00;;
41623;SDS011;27319;50.306;18.926;2024-03-02T12:10:09;31.05;;;16.70;;
41623;SDS011;27319;50.306;18.926;2024-03-02T12:13:11;28.17;;;16.80;;
41623;SDS011;27319;50.306;18.926;2024-03-02T12:16:11;27.40;;;16.27;;
41623;SDS011;27319;50.306;18.926;2024-03-02T12:19:13;25.42;;;16.42;;
41623;SDS011;27319;50.306;18.926;2024-03-02T12:23:13;26.25;;;15.98;;
41623;SDS011;27319;50.306;18.926;2024-03-02T12:27:14;25.55;;;15.73;;
41623;SDS011;27319;50.306;18.926;2024-03-02T12:31:15;33.00;;;18.45;;
41623;SDS011;27319;50.306;18.926;2024-03-02T12:35:17;29.05;;;15.70;;
41623;SDS011;27319;50.306;18.926;2024-03-02T12:39:17;28.77;;;15.07;;
41623;SDS011;27319;50.306;18.926;2024-03-02T12:43:18;26.65;;;15.38;;
41623;SDS011;27319;50.306;18.926;2024-03-02T12:47:18;24.52;;;16.63;;
41623;SDS011;27319;50.306;18.926;2024-03-02T12:51:19;26.45;;;15.80;;
41623;SDS011;27319;50.306;18.926;2024-03-02T12:55:21;25.40;;;13.85;;
41623;SDS011;27319;50.306;18.926;2024-03-02T12:59:23;26.65;;;13.48;;
41623;SDS011;27319;50.306;18.926;2024-03-02T13:03:22;27.35;;;13.95;;
41623;SDS011;27319;50.306;18.926;2024-03-02T13:07:23;22.55;;;13.13;;
41623;SDS011;27319;50.306;18.926;2024-03-02T13:11:24;22.67;;;13.55;;
41623;SDS011;27319;50.306;18.926;2024-03-02T13:15:28;24.58;;;13.60;;
41623;SDS011;27319;50.306;18.926;2024-03-02T13:19:28;27.45;;;14.52;;
41623;SDS011;27319;50.306;18.926;2024-03-02T13:23:12;25.33;;;14.07;;
41623;SDS011;27319;50.306;18.926;2024-03-02T13:27:13;22.02;;;14.80;;
41623;SDS011;27319;50.306;18.926;2024-03-02T13:31:14;29.13;;;14.95;;
41623;SDS011;27319;50.306;18.926;2024-03-02T13:35:15;26.58;;;17.17;;
41623;SDS011;27319;50.306;18.926;2024-03-02T13:39:16;30.45;;;18.40;;
41623;SDS011;27319;50.306;18.926;2024-03-02T13:43:17;35.55;;;21.55;;
41623;SDS011;27319;50.306;18.926;2024-03-02T13:47:18;39.92;;;24.17;;
41623;SDS011;27319;50.306;18.926;2024-03-02T13:51:18;38.50;;;23.73;;
41623;SDS011;27319;50.306;18.926;2024-03-02T13:55:19;44.05;;;25.83;;
41623;SDS011;27319;50.306;18.926;2024-03-02T13:59:21;30.85;;;21.52;;
41623;SDS011;27319;50.306;18.926;2024-03-02T14:03:21;36.47;;;21.05;;
41623;SDS011;27319;50.306;18.926;2024-03-02T14:07:22;34.83;;;21.52;;
41623;SDS011;27319;50.306;18.926;2024-03-02T14:11:23;34.03;;;21.73;;
41623;SDS011;27319;50.306;18.926;2024-03-02T14:15:24;36.75;;;22.77;;
41623;SDS011;27319;50.306;18.926;2024-03-02T14:19:25;33.13;;;22.30;;
41623;SDS011;27319;50.306;18.926;2024-03-02T14:23:26;53.45;;;31.33;;
41623;SDS011;27319;50.306;18.926;2024-03-02T14:27:29;58.08;;;31.50;;
41623;SDS011;27319;50.306;18.926;2024-03-02T14:31:30;44.10;;;24.48;;
41623;SDS011;27319;50.306;18.926;2024-03-02T14:35:31;52.10;;;31.15;;
41623;SDS011;27319;50.306;18.926;2024-03-02T14:39:32;51.28;;;30.63;;
41623;SDS011;27319;50.306;18.926;2024-03-02T14:43:33;40.58;;;22.55;;
41623;SDS011;27319;50.306;18.926;2024-03-02T14:47:34;44.25;;;24.55;;
41623;SDS011;27319;50.306;18.926;2024-03-02T14:51:35;43.67;;;23.10;;
41623;SDS011;27319;50.306;18.926;2024-03-02T14:55:36;28.80;;;18.70;;
41623;SDS011;27319;50.306;18.926;2024-03-02T14:59:37;37.25;;;23.42;;
41623;SDS011;27319;50.306;18.926;2024-03-02T15:03:37;45.53;;;26.75;;
41623;SDS011;27319;50.306;18.926;2024-03-02T15:07:38;36.20;;;22.45;;
41623;SDS011;27319;50.306;18.926;2024-03-02T15:11:39;40.38;;;22.52;;
41623;SDS011;27319;50.306;18.926;2024-03-02T15:15:40;33.17;;;18.80;;
41623;SDS011;27319;50.306;18.926;2024-03-02T15:19:41;34.95;;;19.67;;
41623;SDS011;27319;50.306;18.926;2024-03-02T15:23:42;27.13;;;17.00;;
41623;SDS011;27319;50.306;18.926;2024-03-02T15:27:43;30.90;;;19.35;;
41623;SDS011;27319;50.306;18.926;2024-03-02T15:31:45;36.67;;;20.85;;
41623;SDS011;27319;50.306;18.926;2024-03-02T15:35:46;51.83;;;31.65;;
41623;SDS011;27319;50.306;18.926;2024-03-02T15:39:46;31.52;;;20.80;;
41623;SDS011;27319;50.306;18.926;2024-03-02T15:43:48;41.00;;;23.83;;
41623;SDS011;27319;50.306;18.926;2024-03-02T15:46:49;41.40;;;26.02;;
41623;SDS011;27319;50.306;18.926;2024-03-02T15:50:49;45.20;;;27.45;;
41623;SDS011;27319;50.306;18.926;2024-03-02T15:54:50;45.88;;;26.42;;
41623;SDS011;27319;50.306;18.926;2024-03-02T15:58:51;38.15;;;23.17;;
41623;SDS011;27319;50.306;18.926;2024-03-02T16:02:52;37.72;;;23.00;;
41623;SDS011;27319;50.306;18.926;2024-03-02T16:06:53;42.33;;;24.67;;
41623;SDS011;27319;50.306;18.926;2024-03-02T16:10:54;42.22;;;24.48;;
41623;SDS011;27319;50.306;18.926;2024-03-02T16:14:55;36.67;;;23.27;;
41623;SDS011;27319;50.306;18.926;2024-03-02T16:17:55;42.90;;;22.55;;
41623;SDS011;27319;50.306;18.926;2024-03-02T16:20:59;41.38;;;23.17;;
41623;SDS011;27319;50.306;18.926;2024-03-02T16:24:00;35.08;;;21.88;;
41623;SDS011;27319;50.306;18.926;2024-03-02T16:27:01;36.95;;;24.75;;
41623;SDS011;27319;50.306;18.926;2024-03-02T16:30:02;46.67;;;27.38;;
41623;SDS011;27319;50.306;18.926;2024-03-02T16:34:05;40.90;;;25.13;;
41623;SDS011;27319;50.306;18.926;2024-03-02T16:38:06;38.97;;;24.02;;
41623;SDS011;27319;50.306;18.926;2024-03-02T16:42:07;42.88;;;24.23;;
41623;SDS011;27319;50.306;18.926;2024-03-02T16:46:08;47.88;;;26.85;;
41623;SDS011;27319;50.306;18.926;2024-03-02T16:50:09;47.95;;;29.05;;
41623;SDS011;27319;50.306;18.926;2024-03-02T16:54:10;62.20;;;33.20;;
41623;SDS011;27319;50.306;18.926;2024-03-02T16:58:11;64.75;;;37.03;;
41623;SDS011;27319;50.306;18.926;2024-03-02T17:02:12;76.88;;;42.38;;
41623;SDS011;27319;50.306;18.926;2024-03-02T17:06:12;72.82;;;43.90;;
41623;SDS011;27319;50.306;18.926;2024-03-02T17:10:13;77.45;;;44.80;;
41623;SDS011;27319;50.306;18.926;2024-03-02T17:14:13;84.85;;;48.10;;
41623;SDS011;27319;50.306;18.926;2024-03-02T17:18:14;88.47;;;50.58;;
41623;SDS011;27319;50.306;18.926;2024-03-02T17:22:15;78.40;;;46.53;;
41623;SDS011;27319;50.306;18.926;2024-03-02T17:26:16;73.32;;;43.97;;
41623;SDS011;27319;50.306;18.926;2024-03-02T17:30:17;70.28;;;41.65;;
41623;SDS011;27319;50.306;18.926;2024-03-02T17:34:18;71.22;;;40.90;;
41623;SDS011;27319;50.306;18.926;2024-03-02T17:38:19;77.38;;;46.30;;
41623;SDS011;27319;50.306;18.926;2024-03-02T17:42:20;77.57;;;46.80;;
41623;SDS011;27319;50.306;18.926;2024-03-02T17:46:21;93.22;;;53.45;;
41623;SDS011;27319;50.306;18.926;2024-03-02T17:50:21;91.40;;;51.92;;
41623;SDS011;27319;50.306;18.926;2024-03-02T17:54:22;89.20;;;53.42;;
41623;SDS011;27319;50.306;18.926;2024-03-02T17:57:23;84.07;;;52.83;;
41623;SDS011;27319;50.306;18.926;2024-03-02T18:00:24;109.25;;;64.43;;
41623;SDS011;27319;50.306;18.926;2024-03-02T18:03:29;98.72;;;60.92;;
41623;SDS011;27319;50.306;18.926;2024-03-02T18:07:30;141.68;;;81.57;;
41623;SDS011;27319;50.306;18.926;2024-03-02T18:11:31;220.93;;;122.82;;
41623;SDS011;27319;50.306;18.926;2024-03-02T18:15:33;229.73;;;129.73;;
41623;SDS011;27319;50.306;18.926;2024-03-02T18:19:35;187.30;;;108.10;;
41623;SDS011;27319;50.306;18.926;2024-03-02T18:23:36;191.38;;;109.60;;
41623;SDS011;27319;50.306;18.926;2024-03-02T18:26:37;157.57;;;91.25;;
41623;SDS011;27319;50.306;18.926;2024-03-02T18:29:38;141.95;;;83.45;;
41623;SDS011;27319;50.306;18.926;2024-03-02T18:32:42;153.05;;;86.03;;
41623;SDS011;27319;50.306;18.926;2024-03-02T18:35:43;147.85;;;85.40;;
41623;SDS011;27319;50.306;18.926;2024-03-02T18:38:44;149.63;;;87.15;;
41623;SDS011;27319;50.306;18.926;2024-03-02T18:42:45;167.13;;;96.05;;
41623;SDS011;27319;50.306;18.926;2024-03-02T18:46:45;153.10;;;88.70;;
41623;SDS011;27319;50.306;18.926;2024-03-02T18:50:46;118.90;;;73.53;;
41623;SDS011;27319;50.306;18.926;2024-03-02T18:54:50;109.07;;;66.13;;
41623;SDS011;27319;50.306;18.926;2024-03-02T18:58:50;103.65;;;63.03;;
41623;SDS011;27319;50.306;18.926;2024-03-02T19:02:54;103.70;;;64.20;;
41623;SDS011;27319;50.306;18.926;2024-03-02T19:06:55;113.55;;;70.82;;
41623;SDS011;27319;50.306;18.926;2024-03-02T19:10:56;111.43;;;72.20;;
41623;SDS011;27319;50.306;18.926;2024-03-02T19:14:57;119.32;;;76.57;;
41623;SDS011;27319;50.306;18.926;2024-03-02T19:18:58;109.05;;;68.72;;
41623;SDS011;27319;50.306;18.926;2024-03-02T19:22:59;111.93;;;66.13;;
41623;SDS011;27319;50.306;18.926;2024-03-02T19:27:03;107.13;;;65.15;;
41623;SDS011;27319;50.306;18.926;2024-03-02T19:31:03;101.75;;;63.63;;
41623;SDS011;27319;50.306;18.926;2024-03-02T19:35:04;99.20;;;61.95;;
41623;SDS011;27319;50.306;18.926;2024-03-02T19:39:05;103.38;;;62.08;;
41623;SDS011;27319;50.306;18.926;2024-03-02T19:43:06;96.25;;;58.22;;
41623;SDS011;27319;50.306;18.926;2024-03-02T19:46:07;96.72;;;61.85;;
41623;SDS011;27319;50.306;18.926;2024-03-02T19:49:08;93.28;;;57.80;;
41623;SDS011;27319;50.306;18.926;2024-03-02T19:52:09;96.32;;;59.83;;
41623;SDS011;27319;50.306;18.926;2024-03-02T19:56:15;99.13;;;60.38;;
41623;SDS011;27319;50.306;18.926;2024-03-02T20:00:13;103.10;;;58.00;;
41623;SDS011;27319;50.306;18.926;2024-03-02T20:04:11;113.38;;;63.63;;
41623;SDS011;27319;50.306;18.926;2024-03-02T20:08:12;112.70;;;64.32;;
41623;SDS011;27319;50.306;18.926;2024-03-02T20:11:13;110.10;;;67.13;;
41623;SDS011;27319;50.306;18.926;2024-03-02T20:14:14;104.28;;;61.75;;
41623;SDS011;27319;50.306;18.926;2024-03-02T20:17:15;103.70;;;60.58;;
41623;SDS011;27319;50.306;18.926;2024-03-02T20:20:16;104.22;;;59.95;;
41623;SDS011;27319;50.306;18.926;2024-03-02T20:23:17;99.78;;;58.83;;
41623;SDS011;27319;50.306;18.926;2024-03-02T20:26:18;96.45;;;55.55;;
41623;SDS011;27319;50.306;18.926;2024-03-02T20:29:19;95.25;;;54.75;;
41623;SDS011;27319;50.306;18.926;2024-03-02T20:32:20;91.70;;;53.88;;
41623;SDS011;27319;50.306;18.926;2024-03-02T20:35:38;89.05;;;50.35;;
41623;SDS011;27319;50.306;18.926;2024-03-02T20:38:54;83.93;;;51.08;;
41623;SDS011;27319;50.306;18.926;2024-03-02T20:42:39;97.78;;;50.65;;
41623;SDS011;27319;50.306;18.926;2024-03-02T20:46:40;81.75;;;46.13;;
41623;SDS011;27319;50.306;18.926;2024-03-02T20:50:23;88.78;;;48.90;;
41623;SDS011;27319;50.306;18.926;2024-03-02T20:54:25;82.28;;;48.53;;
41623;SDS011;27319;50.306;18.926;2024-03-02T20:58:26;89.82;;;49.97;;
41623;SDS011;27319;50.306;18.926;2024-03-02T21:02:26;85.80;;;50.00;;
41623;SDS011;27319;50.306;18.926;2024-03-02T21:05:28;97.50;;;53.60;;
41623;SDS011;27319;50.306;18.926;2024-03-02T21:08:29;96.80;;;53.38;;
41623;SDS011;27319;50.306;18.926;2024-03-02T21:12:31;95.05;;;53.05;;
41623;SDS011;27319;50.306;18.926;2024-03-02T21:16:32;109.10;;;58.03;;
41623;SDS011;27319;50.306;18.926;2024-03-02T21:20:33;101.25;;;57.45;;
41623;SDS011;27319;50.306;18.926;2024-03-02T21:24:33;100.00;;;58.65;;
41623;SDS011;27319;50.306;18.926;2024-03-02T21:28:34;98.80;;;55.13;;
41623;SDS011;27319;50.306;18.926;2024-03-02T21:32:35;96.28;;;54.22;;
41623;SDS011;27319;50.306;18.926;2024-03-02T21:36:36;104.40;;;55.78;;
41623;SDS011;27319;50.306;18.926;2024-03-02T21:40:37;98.45;;;55.20;;
41623;SDS011;27319;50.306;18.926;2024-03-02T21:44:37;101.38;;;56.20;;
41623;SDS011;27319;50.306;18.926;2024-03-02T21:48:38;98.75;;;55.17;;
41623;SDS011;27319;50.306;18.926;2024-03-02T21:51:39;100.72;;;57.15;;
41623;SDS011;27319;50.306;18.926;2024-03-02T21:55:40;92.25;;;53.97;;
41623;SDS011;27319;50.306;18.926;2024-03-02T21:59:41;96.45;;;55.72;;